Terminal Aerodrome Forecast
Issued by NWS Cleveland, OH

Home | Current Version | Previous Version | Graphics & Text | Print | Product List | Glossary On
Versions: 1 2 3 4 5 6 7 8 9 10 11 12 13 14 15 16 17 18
741
FTUS41 KCLE 250534
TAFCAK
TAF
KCAK 250534Z 2506/2606 22008KT P6SM SCT120 OVC250
     FM251000 22006KT P6SM SCT050 OVC120
     FM251400 24008KT P6SM OVC045
     FM252000 08008KT P6SM OVC035
      TEMPO 2520/2524 OVC025
     FM260000 10006KT 5SM BR OVC025=

USA.gov is the U.S. government's official web portal to all federal, state and local government web resources and services.